sensor_id;sensor_type;location;lat;lon;timestamp;P1;durP1;ratioP1;P2;durP2;ratioP2
505;SDS011;551;48.524;9.056;2023-05-10T00:01:45;2.83;;;1.17;;
505;SDS011;551;48.524;9.056;2023-05-10T00:04:11;1.47;;;1.37;;
505;SDS011;551;48.524;9.056;2023-05-10T00:06:36;2.30;;;1.30;;
505;SDS011;551;48.524;9.056;2023-05-10T00:09:02;1.53;;;1.43;;
505;SDS011;551;48.524;9.056;2023-05-10T00:11:28;1.50;;;1.40;;
505;SDS011;551;48.524;9.056;2023-05-10T00:13:53;2.70;;;1.40;;
505;SDS011;551;48.524;9.056;2023-05-10T00:16:19;2.20;;;2.00;;
505;SDS011;551;48.524;9.056;2023-05-10T00:18:44;1.20;;;1.17;;
505;SDS011;551;48.524;9.056;2023-05-10T00:21:10;1.30;;;1.17;;
505;SDS011;551;48.524;9.056;2023-05-10T00:23:35;1.40;;;1.30;;
505;SDS011;551;48.524;9.056;2023-05-10T00:26:01;1.50;;;1.40;;
505;SDS011;551;48.524;9.056;2023-05-10T00:28:27;1.43;;;1.33;;
505;SDS011;551;48.524;9.056;2023-05-10T00:30:53;2.10;;;1.47;;
505;SDS011;551;48.524;9.056;2023-05-10T00:33:20;2.80;;;2.37;;
505;SDS011;551;48.524;9.056;2023-05-10T00:35:46;1.10;;;1.10;;
505;SDS011;551;48.524;9.056;2023-05-10T00:38:11;1.50;;;1.40;;
505;SDS011;551;48.524;9.056;2023-05-10T00:40:37;1.00;;;1.00;;
505;SDS011;551;48.524;9.056;2023-05-10T00:43:02;1.23;;;0.93;;
505;SDS011;551;48.524;9.056;2023-05-10T00:45:29;0.87;;;0.87;;
505;SDS011;551;48.524;9.056;2023-05-10T00:47:55;2.20;;;1.00;;
505;SDS011;551;48.524;9.056;2023-05-10T00:50:22;1.13;;;1.10;;
505;SDS011;551;48.524;9.056;2023-05-10T00:52:48;1.73;;;0.90;;
505;SDS011;551;48.524;9.056;2023-05-10T00:55:14;1.20;;;1.10;;
505;SDS011;551;48.524;9.056;2023-05-10T00:57:40;0.97;;;0.90;;
505;SDS011;551;48.524;9.056;2023-05-10T01:00:06;1.43;;;0.93;;
505;SDS011;551;48.524;9.056;2023-05-10T01:02:33;0.87;;;0.87;;
505;SDS011;551;48.524;9.056;2023-05-10T01:04:59;1.20;;;1.10;;
505;SDS011;551;48.524;9.056;2023-05-10T01:07:26;1.00;;;0.90;;
505;SDS011;551;48.524;9.056;2023-05-10T01:09:51;5.47;;;1.10;;
505;SDS011;551;48.524;9.056;2023-05-10T01:12:17;1.00;;;0.90;;
505;SDS011;551;48.524;9.056;2023-05-10T01:14:43;1.57;;;0.90;;
505;SDS011;551;48.524;9.056;2023-05-10T01:17:08;2.13;;;1.20;;
505;SDS011;551;48.524;9.056;2023-05-10T01:19:37;0.90;;;0.90;;
505;SDS011;551;48.524;9.056;2023-05-10T01:24:52;2.50;;;1.13;;
505;SDS011;551;48.524;9.056;2023-05-10T01:27:41;1.90;;;0.90;;
505;SDS011;551;48.524;9.056;2023-05-10T01:30:34;0.83;;;0.83;;
505;SDS011;551;48.524;9.056;2023-05-10T01:36:40;1.10;;;1.00;;
505;SDS011;551;48.524;9.056;2023-05-10T01:38:59;0.80;;;0.80;;
505;SDS011;551;48.524;9.056;2023-05-10T01:41:54;1.10;;;0.80;;
505;SDS011;551;48.524;9.056;2023-05-10T01:44:39;2.47;;;0.77;;
505;SDS011;551;48.524;9.056;2023-05-10T01:47:12;0.70;;;0.70;;
505;SDS011;551;48.524;9.056;2023-05-10T01:49:44;3.23;;;0.90;;
505;SDS011;551;48.524;9.056;2023-05-10T01:52:16;0.80;;;0.80;;
505;SDS011;551;48.524;9.056;2023-05-10T01:54:45;0.70;;;0.70;;
505;SDS011;551;48.524;9.056;2023-05-10T01:57:18;1.83;;;0.90;;
505;SDS011;551;48.524;9.056;2023-05-10T01:59:45;0.80;;;0.80;;
505;SDS011;551;48.524;9.056;2023-05-10T02:02:15;0.80;;;0.80;;
505;SDS011;551;48.524;9.056;2023-05-10T02:04:43;3.70;;;0.90;;
505;SDS011;551;48.524;9.056;2023-05-10T02:07:11;5.27;;;0.97;;
505;SDS011;551;48.524;9.056;2023-05-10T02:09:37;2.30;;;0.90;;
505;SDS011;551;48.524;9.056;2023-05-10T02:12:03;0.90;;;0.90;;
505;SDS011;551;48.524;9.056;2023-05-10T02:14:32;5.53;;;1.10;;
505;SDS011;551;48.524;9.056;2023-05-10T02:17:00;1.63;;;0.80;;
505;SDS011;551;48.524;9.056;2023-05-10T02:19:29;1.67;;;1.20;;
505;SDS011;551;48.524;9.056;2023-05-10T02:21:57;0.87;;;0.87;;
505;SDS011;551;48.524;9.056;2023-05-10T02:24:24;1.67;;;0.80;;
505;SDS011;551;48.524;9.056;2023-05-10T02:26:51;2.63;;;1.13;;
505;SDS011;551;48.524;9.056;2023-05-10T02:29:20;0.90;;;0.90;;
505;SDS011;551;48.524;9.056;2023-05-10T02:31:48;0.73;;;0.73;;
505;SDS011;551;48.524;9.056;2023-05-10T02:34:16;3.40;;;1.00;;
505;SDS011;551;48.524;9.056;2023-05-10T02:36:42;2.83;;;1.00;;
505;SDS011;551;48.524;9.056;2023-05-10T02:39:08;2.27;;;0.90;;
505;SDS011;551;48.524;9.056;2023-05-10T02:41:37;1.77;;;0.93;;
505;SDS011;551;48.524;9.056;2023-05-10T02:44:06;1.07;;;0.80;;
505;SDS011;551;48.524;9.056;2023-05-10T02:46:34;0.80;;;0.80;;
505;SDS011;551;48.524;9.056;2023-05-10T02:49:00;1.10;;;1.00;;
505;SDS011;551;48.524;9.056;2023-05-10T02:51:27;1.20;;;1.10;;
505;SDS011;551;48.524;9.056;2023-05-10T02:53:56;1.20;;;1.10;;
505;SDS011;551;48.524;9.056;2023-05-10T02:56:25;2.53;;;1.10;;
505;SDS011;551;48.524;9.056;2023-05-10T02:59:05;0.90;;;0.90;;
505;SDS011;551;48.524;9.056;2023-05-10T03:01:30;0.90;;;0.90;;
505;SDS011;551;48.524;9.056;2023-05-10T03:03:56;1.80;;;1.10;;
505;SDS011;551;48.524;9.056;2023-05-10T03:06:22;3.53;;;1.87;;
505;SDS011;551;48.524;9.056;2023-05-10T03:08:47;1.40;;;1.10;;
505;SDS011;551;48.524;9.056;2023-05-10T03:16:52;2.23;;;1.20;;
505;SDS011;551;48.524;9.056;2023-05-10T03:20:02;2.13;;;0.93;;
505;SDS011;551;48.524;9.056;2023-05-10T03:22:25;2.17;;;1.53;;
505;SDS011;551;48.524;9.056;2023-05-10T03:24:56;4.83;;;1.60;;
505;SDS011;551;48.524;9.056;2023-05-10T03:27:23;2.20;;;1.37;;
505;SDS011;551;48.524;9.056;2023-05-10T03:29:50;1.20;;;1.10;;
505;SDS011;551;48.524;9.056;2023-05-10T03:32:17;1.50;;;1.40;;
505;SDS011;551;48.524;9.056;2023-05-10T03:34:43;3.43;;;1.33;;
505;SDS011;551;48.524;9.056;2023-05-10T03:37:09;1.90;;;1.20;;
505;SDS011;551;48.524;9.056;2023-05-10T03:39:35;1.57;;;1.27;;
505;SDS011;551;48.524;9.056;2023-05-10T03:42:01;1.77;;;1.67;;
505;SDS011;551;48.524;9.056;2023-05-10T03:44:27;1.97;;;1.23;;
505;SDS011;551;48.524;9.056;2023-05-10T03:46:52;2.13;;;1.33;;
505;SDS011;551;48.524;9.056;2023-05-10T03:49:18;1.60;;;1.40;;
505;SDS011;551;48.524;9.056;2023-05-10T03:51:44;3.20;;;1.47;;
505;SDS011;551;48.524;9.056;2023-05-10T03:54:09;1.40;;;1.30;;
505;SDS011;551;48.524;9.056;2023-05-10T03:56:35;1.70;;;1.60;;
505;SDS011;551;48.524;9.056;2023-05-10T03:59:00;1.87;;;1.37;;
505;SDS011;551;48.524;9.056;2023-05-10T04:01:26;2.03;;;1.93;;
505;SDS011;551;48.524;9.056;2023-05-10T04:03:52;2.53;;;1.57;;
505;SDS011;551;48.524;9.056;2023-05-10T04:06:17;1.30;;;1.30;;
505;SDS011;551;48.524;9.056;2023-05-10T04:08:43;1.50;;;1.40;;
505;SDS011;551;48.524;9.056;2023-05-10T04:11:09;3.07;;;2.37;;
505;SDS011;551;48.524;9.056;2023-05-10T04:13:37;4.23;;;1.80;;
505;SDS011;551;48.524;9.056;2023-05-10T04:16:03;3.40;;;1.70;;
505;SDS011;551;48.524;9.056;2023-05-10T04:18:29;1.80;;;1.50;;
505;SDS011;551;48.524;9.056;2023-05-10T04:20:54;1.47;;;1.37;;
505;SDS011;551;48.524;9.056;2023-05-10T04:23:20;1.50;;;1.40;;
505;SDS011;551;48.524;9.056;2023-05-10T04:25:45;1.30;;;1.20;;
505;SDS011;551;48.524;9.056;2023-05-10T04:28:11;2.13;;;1.53;;
505;SDS011;551;48.524;9.056;2023-05-10T04:30:36;2.27;;;1.70;;
505;SDS011;551;48.524;9.056;2023-05-10T04:33:02;1.70;;;1.60;;
505;SDS011;551;48.524;9.056;2023-05-10T04:35:28;1.67;;;1.57;;
505;SDS011;551;48.524;9.056;2023-05-10T04:37:54;1.67;;;1.57;;
505;SDS011;551;48.524;9.056;2023-05-10T04:40:19;2.10;;;1.70;;
505;SDS011;551;48.524;9.056;2023-05-10T04:42:45;3.43;;;1.60;;
505;SDS011;551;48.524;9.056;2023-05-10T04:45:11;4.30;;;1.40;;
505;SDS011;551;48.524;9.056;2023-05-10T04:47:37;1.60;;;1.50;;
505;SDS011;551;48.524;9.056;2023-05-10T04:50:03;2.70;;;1.50;;
505;SDS011;551;48.524;9.056;2023-05-10T04:52:29;1.70;;;1.60;;
505;SDS011;551;48.524;9.056;2023-05-10T04:54:54;1.50;;;1.40;;
505;SDS011;551;48.524;9.056;2023-05-10T04:57:20;1.37;;;1.27;;
505;SDS011;551;48.524;9.056;2023-05-10T04:59:46;3.87;;;1.40;;
505;SDS011;551;48.524;9.056;2023-05-10T05:02:11;35.70;;;1.83;;
505;SDS011;551;48.524;9.056;2023-05-10T05:04:37;1.77;;;1.20;;
505;SDS011;551;48.524;9.056;2023-05-10T05:07:02;1.40;;;1.30;;
505;SDS011;551;48.524;9.056;2023-05-10T05:09:28;2.13;;;1.93;;
505;SDS011;551;48.524;9.056;2023-05-10T05:11:53;3.23;;;1.67;;
505;SDS011;551;48.524;9.056;2023-05-10T05:14:19;1.53;;;1.43;;
505;SDS011;551;48.524;9.056;2023-05-10T05:16:45;1.53;;;1.43;;
505;SDS011;551;48.524;9.056;2023-05-10T05:19:11;1.50;;;1.40;;
505;SDS011;551;48.524;9.056;2023-05-10T05:21:37;1.70;;;1.60;;
505;SDS011;551;48.524;9.056;2023-05-10T05:24:02;2.50;;;2.30;;
505;SDS011;551;48.524;9.056;2023-05-10T05:26:28;3.63;;;2.30;;
505;SDS011;551;48.524;9.056;2023-05-10T05:28:54;2.10;;;1.90;;
505;SDS011;551;48.524;9.056;2023-05-10T05:31:19;1.97;;;1.60;;
505;SDS011;551;48.524;9.056;2023-05-10T05:33:45;1.80;;;1.70;;
505;SDS011;551;48.524;9.056;2023-05-10T05:36:11;2.67;;;1.57;;
505;SDS011;551;48.524;9.056;2023-05-10T05:38:36;2.30;;;1.87;;
505;SDS011;551;48.524;9.056;2023-05-10T05:41:02;1.90;;;1.60;;
505;SDS011;551;48.524;9.056;2023-05-10T05:43:28;1.83;;;1.50;;
505;SDS011;551;48.524;9.056;2023-05-10T05:45:53;2.57;;;2.00;;
505;SDS011;551;48.524;9.056;2023-05-10T05:48:19;2.43;;;2.10;;
505;SDS011;551;48.524;9.056;2023-05-10T05:50:45;4.37;;;2.13;;
505;SDS011;551;48.524;9.056;2023-05-10T05:53:10;1.60;;;1.50;;
505;SDS011;551;48.524;9.056;2023-05-10T05:55:36;1.90;;;1.80;;
505;SDS011;551;48.524;9.056;2023-05-10T05:58:02;2.37;;;1.70;;
505;SDS011;551;48.524;9.056;2023-05-10T06:00:28;6.23;;;2.20;;
505;SDS011;551;48.524;9.056;2023-05-10T06:02:53;1.70;;;1.60;;
505;SDS011;551;48.524;9.056;2023-05-10T06:05:19;3.53;;;1.70;;
505;SDS011;551;48.524;9.056;2023-05-10T06:07:45;1.77;;;1.60;;
505;SDS011;551;48.524;9.056;2023-05-10T06:10:11;1.83;;;1.63;;
505;SDS011;551;48.524;9.056;2023-05-10T06:12:36;3.20;;;1.80;;
505;SDS011;551;48.524;9.056;2023-05-10T06:15:02;3.63;;;2.07;;
505;SDS011;551;48.524;9.056;2023-05-10T06:17:28;4.53;;;2.87;;
505;SDS011;551;48.524;9.056;2023-05-10T06:19:54;1.83;;;1.70;;
505;SDS011;551;48.524;9.056;2023-05-10T06:22:20;4.97;;;2.00;;
505;SDS011;551;48.524;9.056;2023-05-10T06:24:47;8.60;;;1.50;;
505;SDS011;551;48.524;9.056;2023-05-10T06:27:13;1.90;;;1.60;;
505;SDS011;551;48.524;9.056;2023-05-10T06:29:39;2.17;;;1.50;;
505;SDS011;551;48.524;9.056;2023-05-10T06:32:04;2.43;;;1.80;;
505;SDS011;551;48.524;9.056;2023-05-10T06:34:30;2.03;;;1.73;;
505;SDS011;551;48.524;9.056;2023-05-10T06:36:56;3.20;;;1.67;;
505;SDS011;551;48.524;9.056;2023-05-10T06:39:22;5.97;;;1.73;;
505;SDS011;551;48.524;9.056;2023-05-10T06:41:47;1.87;;;1.77;;
505;SDS011;551;48.524;9.056;2023-05-10T06:44:13;3.77;;;1.80;;
505;SDS011;551;48.524;9.056;2023-05-10T06:46:38;2.33;;;1.40;;
505;SDS011;551;48.524;9.056;2023-05-10T06:49:04;2.40;;;1.80;;
505;SDS011;551;48.524;9.056;2023-05-10T06:51:29;1.87;;;1.77;;
505;SDS011;551;48.524;9.056;2023-05-10T06:53:55;2.30;;;1.53;;
505;SDS011;551;48.524;9.056;2023-05-10T06:56:21;3.10;;;2.00;;
505;SDS011;551;48.524;9.056;2023-05-10T06:58:47;2.07;;;1.37;;
505;SDS011;551;48.524;9.056;2023-05-10T07:01:13;1.43;;;1.20;;
505;SDS011;551;48.524;9.056;2023-05-10T07:03:38;1.40;;;1.30;;
505;SDS011;551;48.524;9.056;2023-05-10T07:06:04;1.30;;;1.20;;
505;SDS011;551;48.524;9.056;2023-05-10T07:08:33;3.35;;;1.30;;
505;SDS011;551;48.524;9.056;2023-05-10T07:11:02;3.67;;;1.40;;
505;SDS011;551;48.524;9.056;2023-05-10T07:13:30;1.40;;;1.30;;
505;SDS011;551;48.524;9.056;2023-05-10T07:15:56;1.83;;;1.27;;
505;SDS011;551;48.524;9.056;2023-05-10T07:18:23;1.53;;;1.40;;
505;SDS011;551;48.524;9.056;2023-05-10T07:20:48;1.87;;;1.67;;
505;SDS011;551;48.524;9.056;2023-05-10T07:23:14;1.70;;;1.60;;
505;SDS011;551;48.524;9.056;2023-05-10T07:25:40;1.57;;;1.47;;
505;SDS011;551;48.524;9.056;2023-05-10T07:28:05;2.97;;;1.50;;
505;SDS011;551;48.524;9.056;2023-05-10T07:30:31;4.67;;;1.93;;
505;SDS011;551;48.524;9.056;2023-05-10T07:32:56;1.40;;;1.30;;
505;SDS011;551;48.524;9.056;2023-05-10T07:35:22;1.57;;;1.47;;
505;SDS011;551;48.524;9.056;2023-05-10T07:37:47;1.30;;;1.20;;
505;SDS011;551;48.524;9.056;2023-05-10T07:40:13;2.90;;;1.80;;
505;SDS011;551;48.524;9.056;2023-05-10T07:42:38;3.33;;;1.30;;
505;SDS011;551;48.524;9.056;2023-05-10T07:45:04;1.70;;;1.17;;
505;SDS011;551;48.524;9.056;2023-05-10T07:47:30;6.27;;;1.43;;
505;SDS011;551;48.524;9.056;2023-05-10T07:49:55;1.40;;;1.30;;
505;SDS011;551;48.524;9.056;2023-05-10T07:52:21;1.40;;;1.13;;
505;SDS011;551;48.524;9.056;2023-05-10T07:54:46;1.80;;;1.30;;
505;SDS011;551;48.524;9.056;2023-05-10T07:57:12;3.63;;;3.33;;
505;SDS011;551;48.524;9.056;2023-05-10T07:59:40;1.40;;;1.30;;
505;SDS011;551;48.524;9.056;2023-05-10T08:02:07;1.47;;;1.37;;
505;SDS011;551;48.524;9.056;2023-05-10T08:04:32;2.00;;;1.70;;
505;SDS011;551;48.524;9.056;2023-05-10T08:06:58;1.30;;;1.20;;
505;SDS011;551;48.524;9.056;2023-05-10T08:09:24;1.60;;;1.50;;
505;SDS011;551;48.524;9.056;2023-05-10T08:11:50;1.70;;;1.60;;
505;SDS011;551;48.524;9.056;2023-05-10T08:14:16;1.30;;;1.20;;
505;SDS011;551;48.524;9.056;2023-05-10T08:16:42;1.73;;;1.63;;
505;SDS011;551;48.524;9.056;2023-05-10T08:19:08;1.60;;;1.30;;
505;SDS011;551;48.524;9.056;2023-05-10T08:21:34;3.80;;;2.13;;
505;SDS011;551;48.524;9.056;2023-05-10T08:24:00;3.80;;;2.00;;
505;SDS011;551;48.524;9.056;2023-05-10T08:26:27;2.00;;;1.47;;
505;SDS011;551;48.524;9.056;2023-05-10T08:28:53;2.63;;;2.10;;
505;SDS011;551;48.524;9.056;2023-05-10T08:31:19;1.87;;;1.77;;
505;SDS011;551;48.524;9.056;2023-05-10T08:33:44;2.90;;;2.70;;
505;SDS011;551;48.524;9.056;2023-05-10T08:36:10;3.60;;;2.03;;
505;SDS011;551;48.524;9.056;2023-05-10T08:38:39;2.30;;;2.00;;
505;SDS011;551;48.524;9.056;2023-05-10T08:41:04;1.40;;;1.30;;
505;SDS011;551;48.524;9.056;2023-05-10T08:43:30;1.77;;;1.20;;
505;SDS011;551;48.524;9.056;2023-05-10T08:45:59;5.90;;;1.57;;
505;SDS011;551;48.524;9.056;2023-05-10T08:48:27;1.50;;;1.40;;
505;SDS011;551;48.524;9.056;2023-05-10T08:50:54;2.47;;;1.93;;
505;SDS011;551;48.524;9.056;2023-05-10T08:53:24;1.87;;;1.17;;
505;SDS011;551;48.524;9.056;2023-05-10T08:55:53;1.50;;;1.40;;
505;SDS011;551;48.524;9.056;2023-05-10T08:58:20;1.03;;;1.00;;
505;SDS011;551;48.524;9.056;2023-05-10T09:00:46;1.23;;;1.13;;
505;SDS011;551;48.524;9.056;2023-05-10T09:03:13;2.00;;;1.30;;
505;SDS011;551;48.524;9.056;2023-05-10T09:05:39;3.07;;;1.20;;
505;SDS011;551;48.524;9.056;2023-05-10T09:08:05;0.90;;;0.90;;
505;SDS011;551;48.524;9.056;2023-05-10T09:10:32;1.33;;;1.00;;
505;SDS011;551;48.524;9.056;2023-05-10T09:12:58;1.17;;;1.07;;
505;SDS011;551;48.524;9.056;2023-05-10T09:15:24;1.33;;;1.00;;
505;SDS011;551;48.524;9.056;2023-05-10T09:17:49;1.57;;;1.00;;
505;SDS011;551;48.524;9.056;2023-05-10T09:20:15;8.00;;;1.30;;
505;SDS011;551;48.524;9.056;2023-05-10T09:22:42;0.83;;;0.83;;
505;SDS011;551;48.524;9.056;2023-05-10T09:27:35;1.20;;;1.10;;
505;SDS011;551;48.524;9.056;2023-05-10T09:30:02;1.13;;;0.93;;
505;SDS011;551;48.524;9.056;2023-05-10T09:35:14;3.07;;;1.53;;
505;SDS011;551;48.524;9.056;2023-05-10T09:37:44;1.10;;;1.10;;
505;SDS011;551;48.524;9.056;2023-05-10T09:40:20;5.20;;;1.37;;
505;SDS011;551;48.524;9.056;2023-05-10T09:42:53;1.33;;;0.80;;
505;SDS011;551;48.524;9.056;2023-05-10T09:45:21;1.00;;;1.00;;
505;SDS011;551;48.524;9.056;2023-05-10T09:47:47;0.83;;;0.83;;
505;SDS011;551;48.524;9.056;2023-05-10T09:50:13;1.30;;;1.00;;
505;SDS011;551;48.524;9.056;2023-05-10T09:53:12;1.30;;;1.20;;
505;SDS011;551;48.524;9.056;2023-05-10T09:58:11;1.20;;;1.00;;
505;SDS011;551;48.524;9.056;2023-05-10T10:00:42;2.93;;;1.00;;
505;SDS011;551;48.524;9.056;2023-05-10T10:03:15;1.00;;;1.00;;
505;SDS011;551;48.524;9.056;2023-05-10T10:05:42;2.60;;;1.37;;
505;SDS011;551;48.524;9.056;2023-05-10T10:08:09;0.90;;;0.90;;
505;SDS011;551;48.524;9.056;2023-05-10T10:10:35;1.00;;;1.00;;
505;SDS011;551;48.524;9.056;2023-05-10T10:13:01;1.10;;;1.00;;
505;SDS011;551;48.524;9.056;2023-05-10T10:15:26;1.00;;;1.00;;
505;SDS011;551;48.524;9.056;2023-05-10T10:17:52;1.13;;;1.13;;
505;SDS011;551;48.524;9.056;2023-05-10T10:20:20;1.37;;;1.20;;
505;SDS011;551;48.524;9.056;2023-05-10T10:22:47;3.03;;;1.57;;
505;SDS011;551;48.524;9.056;2023-05-10T10:25:14;1.30;;;1.20;;
505;SDS011;551;48.524;9.056;2023-05-10T10:33:01;1.40;;;1.30;;
505;SDS011;551;48.524;9.056;2023-05-10T10:35:38;1.97;;;1.50;;
505;SDS011;551;48.524;9.056;2023-05-10T10:38:05;2.40;;;1.40;;
505;SDS011;551;48.524;9.056;2023-05-10T10:40:33;1.27;;;1.27;;
505;SDS011;551;48.524;9.056;2023-05-10T10:43:20;1.20;;;1.10;;
505;SDS011;551;48.524;9.056;2023-05-10T10:48:34;1.57;;;1.10;;
505;SDS011;551;48.524;9.056;2023-05-10T10:51:00;1.13;;;1.13;;
505;SDS011;551;48.524;9.056;2023-05-10T10:53:30;1.70;;;1.30;;
505;SDS011;551;48.524;9.056;2023-05-10T10:56:09;3.53;;;1.43;;
505;SDS011;551;48.524;9.056;2023-05-10T10:58:37;7.30;;;2.70;;
505;SDS011;551;48.524;9.056;2023-05-10T11:03:38;3.73;;;1.80;;
505;SDS011;551;48.524;9.056;2023-05-10T11:06:03;1.80;;;1.30;;
505;SDS011;551;48.524;9.056;2023-05-10T11:08:30;3.10;;;1.97;;
505;SDS011;551;48.524;9.056;2023-05-10T11:13:32;12.10;;;3.40;;
505;SDS011;551;48.524;9.056;2023-05-10T11:18:59;6.20;;;3.37;;
505;SDS011;551;48.524;9.056;2023-05-10T11:21:29;4.10;;;2.50;;
505;SDS011;551;48.524;9.056;2023-05-10T11:23:56;3.27;;;2.50;;
505;SDS011;551;48.524;9.056;2023-05-10T11:26:23;5.03;;;1.83;;
505;SDS011;551;48.524;9.056;2023-05-10T11:28:51;2.37;;;1.90;;
505;SDS011;551;48.524;9.056;2023-05-10T11:31:18;1.70;;;1.20;;
505;SDS011;551;48.524;9.056;2023-05-10T11:33:51;4.83;;;1.30;;
505;SDS011;551;48.524;9.056;2023-05-10T11:36:19;2.50;;;1.40;;
505;SDS011;551;48.524;9.056;2023-05-10T11:38:57;1.70;;;0.97;;
505;SDS011;551;48.524;9.056;2023-05-10T11:41:23;2.70;;;1.77;;
505;SDS011;551;48.524;9.056;2023-05-10T11:43:49;6.40;;;2.10;;
505;SDS011;551;48.524;9.056;2023-05-10T11:46:18;8.80;;;3.20;;
505;SDS011;551;48.524;9.056;2023-05-10T11:48:45;4.23;;;2.43;;
505;SDS011;551;48.524;9.056;2023-05-10T11:51:13;1.57;;;1.20;;
505;SDS011;551;48.524;9.056;2023-05-10T11:53:39;3.60;;;1.10;;
505;SDS011;551;48.524;9.056;2023-05-10T11:56:05;2.97;;;2.77;;
505;SDS011;551;48.524;9.056;2023-05-10T11:58:32;4.20;;;3.50;;
505;SDS011;551;48.524;9.056;2023-05-10T12:00:59;4.00;;;1.93;;
505;SDS011;551;48.524;9.056;2023-05-10T12:03:25;7.83;;;2.70;;
505;SDS011;551;48.524;9.056;2023-05-10T12:05:51;2.37;;;2.17;;
505;SDS011;551;48.524;9.056;2023-05-10T12:08:20;5.37;;;4.10;;
505;SDS011;551;48.524;9.056;2023-05-10T12:10:47;1.70;;;1.60;;
505;SDS011;551;48.524;9.056;2023-05-10T12:13:13;5.37;;;1.40;;
505;SDS011;551;48.524;9.056;2023-05-10T12:15:40;1.60;;;1.50;;
505;SDS011;551;48.524;9.056;2023-05-10T12:18:07;2.20;;;1.67;;
505;SDS011;551;48.524;9.056;2023-05-10T12:20:37;2.37;;;1.93;;
505;SDS011;551;48.524;9.056;2023-05-10T12:23:03;4.57;;;1.47;;
505;SDS011;551;48.524;9.056;2023-05-10T12:25:30;2.70;;;1.17;;
505;SDS011;551;48.524;9.056;2023-05-10T12:27:58;1.50;;;1.40;;
505;SDS011;551;48.524;9.056;2023-05-10T12:30:26;2.40;;;1.50;;
505;SDS011;551;48.524;9.056;2023-05-10T12:32:53;2.90;;;2.07;;
505;SDS011;551;48.524;9.056;2023-05-10T12:35:24;6.47;;;3.30;;
505;SDS011;551;48.524;9.056;2023-05-10T12:37:50;1.90;;;1.80;;
505;SDS011;551;48.524;9.056;2023-05-10T12:40:16;1.40;;;1.30;;
505;SDS011;551;48.524;9.056;2023-05-10T12:42:41;2.30;;;1.60;;
505;SDS011;551;48.524;9.056;2023-05-10T12:45:09;1.67;;;1.20;;
505;SDS011;551;48.524;9.056;2023-05-10T12:47:35;1.73;;;1.20;;
505;SDS011;551;48.524;9.056;2023-05-10T12:50:01;2.00;;;1.50;;
505;SDS011;551;48.524;9.056;2023-05-10T12:52:27;3.50;;;1.60;;
505;SDS011;551;48.524;9.056;2023-05-10T12:54:53;1.90;;;1.40;;
505;SDS011;551;48.524;9.056;2023-05-10T12:57:22;1.63;;;1.40;;
505;SDS011;551;48.524;9.056;2023-05-10T12:59:48;3.13;;;1.60;;
505;SDS011;551;48.524;9.056;2023-05-10T13:02:13;3.43;;;1.33;;
505;SDS011;551;48.524;9.056;2023-05-10T13:04:40;1.30;;;1.20;;
505;SDS011;551;48.524;9.056;2023-05-10T13:07:06;1.70;;;1.40;;
505;SDS011;551;48.524;9.056;2023-05-10T13:09:32;4.67;;;1.67;;
505;SDS011;551;48.524;9.056;2023-05-10T13:11:58;1.63;;;1.27;;
505;SDS011;551;48.524;9.056;2023-05-10T13:14:24;2.07;;;1.27;;
505;SDS011;551;48.524;9.056;2023-05-10T13:16:50;2.23;;;1.10;;
505;SDS011;551;48.524;9.056;2023-05-10T13:19:16;2.03;;;1.33;;
505;SDS011;551;48.524;9.056;2023-05-10T13:21:42;2.03;;;1.20;;
505;SDS011;551;48.524;9.056;2023-05-10T13:24:09;1.60;;;1.50;;
505;SDS011;551;48.524;9.056;2023-05-10T13:26:35;3.43;;;2.70;;
505;SDS011;551;48.524;9.056;2023-05-10T13:29:02;5.33;;;3.57;;
505;SDS011;551;48.524;9.056;2023-05-10T13:31:28;8.17;;;3.87;;
505;SDS011;551;48.524;9.056;2023-05-10T13:33:54;6.70;;;2.50;;
505;SDS011;551;48.524;9.056;2023-05-10T13:36:20;2.00;;;1.60;;
505;SDS011;551;48.524;9.056;2023-05-10T13:38:46;2.90;;;1.47;;
505;SDS011;551;48.524;9.056;2023-05-10T13:41:11;2.33;;;1.40;;
505;SDS011;551;48.524;9.056;2023-05-10T13:43:37;3.97;;;1.80;;
505;SDS011;551;48.524;9.056;2023-05-10T13:46:02;1.90;;;1.60;;
505;SDS011;551;48.524;9.056;2023-05-10T13:48:28;2.10;;;1.90;;
505;SDS011;551;48.524;9.056;2023-05-10T13:50:54;2.07;;;1.90;;
505;SDS011;551;48.524;9.056;2023-05-10T13:53:19;3.63;;;1.40;;
505;SDS011;551;48.524;9.056;2023-05-10T13:55:46;3.10;;;2.10;;
505;SDS011;551;48.524;9.056;2023-05-10T13:58:12;2.33;;;2.13;;
505;SDS011;551;48.524;9.056;2023-05-10T14:00:38;1.97;;;1.77;;
505;SDS011;551;48.524;9.056;2023-05-10T14:03:03;1.60;;;1.50;;
505;SDS011;551;48.524;9.056;2023-05-10T14:05:31;1.80;;;1.70;;
505;SDS011;551;48.524;9.056;2023-05-10T14:07:56;3.30;;;2.17;;
505;SDS011;551;48.524;9.056;2023-05-10T14:10:22;4.37;;;3.03;;
505;SDS011;551;48.524;9.056;2023-05-10T14:12:49;6.00;;;2.87;;
505;SDS011;551;48.524;9.056;2023-05-10T14:15:15;1.93;;;1.83;;
505;SDS011;551;48.524;9.056;2023-05-10T14:17:41;5.47;;;2.90;;
505;SDS011;551;48.524;9.056;2023-05-10T14:20:07;3.00;;;2.00;;
505;SDS011;551;48.524;9.056;2023-05-10T14:22:33;5.50;;;2.10;;
505;SDS011;551;48.524;9.056;2023-05-10T14:24:58;4.67;;;1.70;;
505;SDS011;551;48.524;9.056;2023-05-10T14:27:24;6.27;;;1.60;;
505;SDS011;551;48.524;9.056;2023-05-10T14:29:50;1.50;;;1.40;;
505;SDS011;551;48.524;9.056;2023-05-10T14:32:15;1.70;;;1.60;;
505;SDS011;551;48.524;9.056;2023-05-10T14:34:41;4.87;;;1.60;;
505;SDS011;551;48.524;9.056;2023-05-10T14:37:07;1.50;;;1.40;;
505;SDS011;551;48.524;9.056;2023-05-10T14:39:34;1.53;;;1.43;;
505;SDS011;551;48.524;9.056;2023-05-10T14:42:00;10.53;;;1.87;;
505;SDS011;551;48.524;9.056;2023-05-10T14:44:27;2.03;;;1.60;;
505;SDS011;551;48.524;9.056;2023-05-10T14:46:53;1.43;;;1.33;;
505;SDS011;551;48.524;9.056;2023-05-10T14:49:18;1.83;;;1.23;;
505;SDS011;551;48.524;9.056;2023-05-10T14:51:44;6.73;;;1.60;;
505;SDS011;551;48.524;9.056;2023-05-10T14:54:10;3.23;;;1.23;;
505;SDS011;551;48.524;9.056;2023-05-10T14:56:36;3.03;;;1.67;;
505;SDS011;551;48.524;9.056;2023-05-10T14:59:02;1.50;;;1.40;;
505;SDS011;551;48.524;9.056;2023-05-10T15:01:28;4.83;;;1.40;;
505;SDS011;551;48.524;9.056;2023-05-10T15:03:54;4.90;;;1.47;;
505;SDS011;551;48.524;9.056;2023-05-10T15:06:23;2.50;;;1.77;;
505;SDS011;551;48.524;9.056;2023-05-10T15:08:55;5.17;;;2.33;;
505;SDS011;551;48.524;9.056;2023-05-10T15:11:20;2.80;;;1.30;;
505;SDS011;551;48.524;9.056;2023-05-10T15:13:46;5.30;;;1.23;;
505;SDS011;551;48.524;9.056;2023-05-10T15:16:11;2.33;;;1.30;;
505;SDS011;551;48.524;9.056;2023-05-10T15:18:37;2.10;;;1.40;;
505;SDS011;551;48.524;9.056;2023-05-10T15:21:02;6.47;;;1.47;;
505;SDS011;551;48.524;9.056;2023-05-10T15:23:28;2.30;;;1.37;;
505;SDS011;551;48.524;9.056;2023-05-10T15:25:55;2.27;;;1.50;;
505;SDS011;551;48.524;9.056;2023-05-10T15:28:22;4.30;;;1.70;;
505;SDS011;551;48.524;9.056;2023-05-10T15:30:47;1.33;;;1.23;;
505;SDS011;551;48.524;9.056;2023-05-10T15:33:14;1.93;;;1.50;;
505;SDS011;551;48.524;9.056;2023-05-10T15:35:39;3.50;;;1.60;;
505;SDS011;551;48.524;9.056;2023-05-10T15:38:05;3.33;;;1.23;;
505;SDS011;551;48.524;9.056;2023-05-10T15:40:32;1.83;;;1.27;;
505;SDS011;551;48.524;9.056;2023-05-10T15:42:57;2.03;;;1.03;;
505;SDS011;551;48.524;9.056;2023-05-10T15:45:22;1.73;;;1.10;;
505;SDS011;551;48.524;9.056;2023-05-10T15:47:48;1.53;;;1.43;;
505;SDS011;551;48.524;9.056;2023-05-10T15:50:14;2.97;;;1.50;;
505;SDS011;551;48.524;9.056;2023-05-10T15:52:41;2.17;;;1.33;;
505;SDS011;551;48.524;9.056;2023-05-10T15:55:07;1.43;;;1.13;;
505;SDS011;551;48.524;9.056;2023-05-10T15:57:39;2.40;;;1.50;;
505;SDS011;551;48.524;9.056;2023-05-10T16:00:08;3.90;;;1.47;;
505;SDS011;551;48.524;9.056;2023-05-10T16:02:34;2.03;;;1.30;;
505;SDS011;551;48.524;9.056;2023-05-10T16:05:01;1.20;;;1.10;;
505;SDS011;551;48.524;9.056;2023-05-10T16:07:27;1.10;;;1.10;;
505;SDS011;551;48.524;9.056;2023-05-10T16:09:52;1.60;;;1.40;;
505;SDS011;551;48.524;9.056;2023-05-10T16:12:18;2.00;;;1.10;;
505;SDS011;551;48.524;9.056;2023-05-10T16:14:44;2.33;;;1.90;;
505;SDS011;551;48.524;9.056;2023-05-10T16:17:10;2.97;;;1.77;;
505;SDS011;551;48.524;9.056;2023-05-10T16:19:35;3.17;;;1.60;;